sensor_id;sensor_type;location;lat;lon;timestamp;pressure;altitude;pressure_sealevel;temperature;humidity
11347;BME280;5728;42.722;23.258;2022-12-29T00:02:12;95677.97;;;5.83;95.90
11347;BME280;5728;42.722;23.258;2022-12-29T00:04:38;95677.97;;;6.37;92.76
11347;BME280;5728;42.722;23.258;2022-12-29T00:07:07;95685.69;;;6.34;91.05
11347;BME280;5728;42.722;23.258;2022-12-29T00:09:34;95677.44;;;6.56;91.37
11347;BME280;5728;42.722;23.258;2022-12-29T00:12:02;95676.59;;;6.59;90.68
11347;BME280;5728;42.722;23.258;2022-12-29T00:14:29;95677.94;;;6.95;88.60
11347;BME280;5728;42.722;23.258;2022-12-29T00:17:14;95679.78;;;7.05;87.33
11347;BME280;5728;42.722;23.258;2022-12-29T00:19:40;95687.81;;;7.27;85.93
11347;BME280;5728;42.722;23.258;2022-12-29T00:22:26;95702.31;;;7.19;86.38
11347;BME280;5728;42.722;23.258;2022-12-29T00:25:11;95699.59;;;7.06;85.66
11347;BME280;5728;42.722;23.258;2022-12-29T00:27:56;95703.00;;;6.44;87.62
11347;BME280;5728;42.722;23.258;2022-12-29T00:30:41;95697.03;;;6.47;87.87
11347;BME280;5728;42.722;23.258;2022-12-29T00:33:28;95705.22;;;6.78;88.22
11347;BME280;5728;42.722;23.258;2022-12-29T00:36:15;95700.38;;;7.02;87.87
11347;BME280;5728;42.722;23.258;2022-12-29T00:38:47;95671.97;;;6.98;85.96
11347;BME280;5728;42.722;23.258;2022-12-29T00:41:33;95710.16;;;7.25;85.08
11347;BME280;5728;42.722;23.258;2022-12-29T00:44:18;95709.28;;;7.26;84.54
11347;BME280;5728;42.722;23.258;2022-12-29T00:46:45;95712.97;;;7.46;83.90
11347;BME280;5728;42.722;23.258;2022-12-29T00:49:13;95704.34;;;7.45;82.81
11347;BME280;5728;42.722;23.258;2022-12-29T00:51:59;95702.47;;;7.31;84.09
11347;BME280;5728;42.722;23.258;2022-12-29T00:54:30;95717.28;;;6.79;85.14
11347;BME280;5728;42.722;23.258;2022-12-29T00:56:57;95720.84;;;6.90;86.14
11347;BME280;5728;42.722;23.258;2022-12-29T00:59:25;95715.84;;;7.01;85.37
11347;BME280;5728;42.722;23.258;2022-12-29T01:01:52;95716.22;;;7.30;84.96
11347;BME280;5728;42.722;23.258;2022-12-29T01:04:20;95696.59;;;7.42;83.91
11347;BME280;5728;42.722;23.258;2022-12-29T01:06:47;95704.38;;;7.47;83.84
11347;BME280;5728;42.722;23.258;2022-12-29T01:09:14;95713.13;;;7.61;83.01
11347;BME280;5728;42.722;23.258;2022-12-29T01:11:59;95707.75;;;7.40;83.28
11347;BME280;5728;42.722;23.258;2022-12-29T01:14:27;95711.75;;;7.18;84.82
11347;BME280;5728;42.722;23.258;2022-12-29T01:16:54;95698.91;;;7.23;84.32
11347;BME280;5728;42.722;23.258;2022-12-29T01:19:21;95702.50;;;7.34;83.32
11347;BME280;5728;42.722;23.258;2022-12-29T01:21:49;95699.94;;;7.35;82.44
11347;BME280;5728;42.722;23.258;2022-12-29T01:24:18;95697.34;;;7.34;81.75
11347;BME280;5728;42.722;23.258;2022-12-29T01:26:45;95697.44;;;7.43;82.12
11347;BME280;5728;42.722;23.258;2022-12-29T01:29:13;95700.75;;;7.33;81.70
11347;BME280;5728;42.722;23.258;2022-12-29T01:31:40;95692.28;;;7.43;82.82
11347;BME280;5728;42.722;23.258;2022-12-29T01:34:07;95691.56;;;7.56;82.04
11347;BME280;5728;42.722;23.258;2022-12-29T01:36:33;95678.69;;;7.57;80.65
11347;BME280;5728;42.722;23.258;2022-12-29T01:39:01;95678.53;;;7.44;82.08
11347;BME280;5728;42.722;23.258;2022-12-29T01:41:28;95671.66;;;7.46;82.06
11347;BME280;5728;42.722;23.258;2022-12-29T01:43:57;95675.28;;;6.86;81.70
11347;BME280;5728;42.722;23.258;2022-12-29T01:46:28;95678.63;;;6.79;84.58
11347;BME280;5728;42.722;23.258;2022-12-29T01:49:02;95658.88;;;6.81;85.06
11347;BME280;5728;42.722;23.258;2022-12-29T01:51:31;95672.13;;;7.10;83.94
11347;BME280;5728;42.722;23.258;2022-12-29T01:54:00;95666.03;;;7.03;83.63
11347;BME280;5728;42.722;23.258;2022-12-29T01:56:29;95675.63;;;7.15;84.29
11347;BME280;5728;42.722;23.258;2022-12-29T01:59:01;95669.44;;;7.02;84.03
11347;BME280;5728;42.722;23.258;2022-12-29T02:01:29;95662.19;;;6.71;84.66
11347;BME280;5728;42.722;23.258;2022-12-29T02:03:56;95659.81;;;6.86;84.38
11347;BME280;5728;42.722;23.258;2022-12-29T02:06:26;95664.19;;;6.93;84.45
11347;BME280;5728;42.722;23.258;2022-12-29T02:08:55;95665.88;;;6.91;85.73
11347;BME280;5728;42.722;23.258;2022-12-29T02:11:23;95652.22;;;6.98;84.28
11347;BME280;5728;42.722;23.258;2022-12-29T02:13:51;95665.94;;;6.97;84.80
11347;BME280;5728;42.722;23.258;2022-12-29T02:16:38;95657.47;;;7.06;84.24
11347;BME280;5728;42.722;23.258;2022-12-29T02:19:32;95655.47;;;6.85;84.23
11347;BME280;5728;42.722;23.258;2022-12-29T02:22:14;95650.50;;;7.00;83.71
11347;BME280;5728;42.722;23.258;2022-12-29T02:25:28;95657.47;;;7.07;83.57
11347;BME280;5728;42.722;23.258;2022-12-29T02:28:16;95664.41;;;7.12;84.02
11347;BME280;5728;42.722;23.258;2022-12-29T02:30:57;95657.28;;;6.92;84.35
11347;BME280;5728;42.722;23.258;2022-12-29T02:33:38;95661.78;;;7.07;83.65
11347;BME280;5728;42.722;23.258;2022-12-29T02:36:15;95662.56;;;7.03;82.75
11347;BME280;5728;42.722;23.258;2022-12-29T02:38:55;95658.34;;;7.06;83.23
11347;BME280;5728;42.722;23.258;2022-12-29T02:41:31;95658.25;;;7.00;83.67
11347;BME280;5728;42.722;23.258;2022-12-29T02:44:02;95657.59;;;7.17;83.41
11347;BME280;5728;42.722;23.258;2022-12-29T02:46:35;95661.06;;;7.19;83.07
11347;BME280;5728;42.722;23.258;2022-12-29T02:49:06;95659.31;;;7.16;83.37
11347;BME280;5728;42.722;23.258;2022-12-29T02:51:42;95647.19;;;7.11;83.76
11347;BME280;5728;42.722;23.258;2022-12-29T02:54:10;95654.22;;;7.24;83.35
11347;BME280;5728;42.722;23.258;2022-12-29T02:56:55;95657.59;;;7.17;83.02
11347;BME280;5728;42.722;23.258;2022-12-29T02:59:22;95654.28;;;7.27;82.86
11347;BME280;5728;42.722;23.258;2022-12-29T03:02:11;95642.28;;;7.32;82.14
11347;BME280;5728;42.722;23.258;2022-12-29T03:04:54;95639.66;;;7.29;82.55
11347;BME280;5728;42.722;23.258;2022-12-29T03:07:32;95641.34;;;7.25;82.46
11347;BME280;5728;42.722;23.258;2022-12-29T03:10:15;95639.59;;;7.23;83.79
11347;BME280;5728;42.722;23.258;2022-12-29T03:12:49;95641.34;;;7.24;83.11
11347;BME280;5728;42.722;23.258;2022-12-29T03:15:41;95630.84;;;7.07;83.63
11347;BME280;5728;42.722;23.258;2022-12-29T03:18:34;95629.28;;;7.23;82.74
11347;BME280;5728;42.722;23.258;2022-12-29T03:21:08;95636.13;;;7.21;83.19
11347;BME280;5728;42.722;23.258;2022-12-29T03:23:37;95620.69;;;7.22;82.38
11347;BME280;5728;42.722;23.258;2022-12-29T03:26:08;95622.53;;;7.35;82.67
11347;BME280;5728;42.722;23.258;2022-12-29T03:28:39;95626.59;;;7.14;83.29
11347;BME280;5728;42.722;23.258;2022-12-29T03:31:08;95632.59;;;7.11;82.48
11347;BME280;5728;42.722;23.258;2022-12-29T03:33:41;95636.91;;;7.14;81.65
11347;BME280;5728;42.722;23.258;2022-12-29T03:36:14;95633.56;;;7.21;81.29
11347;BME280;5728;42.722;23.258;2022-12-29T03:38:46;95630.00;;;7.10;81.50
11347;BME280;5728;42.722;23.258;2022-12-29T03:41:18;95623.91;;;7.03;81.59
11347;BME280;5728;42.722;23.258;2022-12-29T03:43:46;95638.97;;;6.71;82.69
11347;BME280;5728;42.722;23.258;2022-12-29T03:46:13;95644.72;;;6.52;85.61
11347;BME280;5728;42.722;23.258;2022-12-29T03:48:41;95633.66;;;6.01;85.89
11347;BME280;5728;42.722;23.258;2022-12-29T03:51:08;95649.00;;;5.93;87.32
11347;BME280;5728;42.722;23.258;2022-12-29T03:53:35;95652.56;;;6.03;87.28
11347;BME280;5728;42.722;23.258;2022-12-29T03:56:02;95649.53;;;6.26;86.43
11347;BME280;5728;42.722;23.258;2022-12-29T03:58:29;95660.09;;;6.46;85.30
11347;BME280;5728;42.722;23.258;2022-12-29T04:00:56;95659.34;;;6.52;84.22
11347;BME280;5728;42.722;23.258;2022-12-29T04:03:23;95664.53;;;6.56;83.57
11347;BME280;5728;42.722;23.258;2022-12-29T04:05:51;95658.63;;;6.65;82.53
11347;BME280;5728;42.722;23.258;2022-12-29T04:08:18;95661.16;;;6.60;82.76
11347;BME280;5728;42.722;23.258;2022-12-29T04:10:45;95660.38;;;6.64;82.84
11347;BME280;5728;42.722;23.258;2022-12-29T04:13:11;95658.38;;;6.45;83.64
11347;BME280;5728;42.722;23.258;2022-12-29T04:15:38;95645.38;;;6.37;83.57
11347;BME280;5728;42.722;23.258;2022-12-29T04:18:05;95643.56;;;6.30;83.64
11347;BME280;5728;42.722;23.258;2022-12-29T04:20:31;95663.56;;;6.50;82.62
11347;BME280;5728;42.722;23.258;2022-12-29T04:23:17;95658.63;;;6.63;82.46
11347;BME280;5728;42.722;23.258;2022-12-29T04:25:45;95652.59;;;6.61;82.16
11347;BME280;5728;42.722;23.258;2022-12-29T04:28:12;95661.97;;;6.56;82.28
11347;BME280;5728;42.722;23.258;2022-12-29T04:30:39;95666.19;;;6.53;82.08
11347;BME280;5728;42.722;23.258;2022-12-29T04:33:06;95666.19;;;6.51;82.66
11347;BME280;5728;42.722;23.258;2022-12-29T04:35:33;95668.59;;;6.40;82.61
11347;BME280;5728;42.722;23.258;2022-12-29T04:38:00;95674.75;;;6.49;84.95
11347;BME280;5728;42.722;23.258;2022-12-29T04:40:29;95664.91;;;6.23;86.56
11347;BME280;5728;42.722;23.258;2022-12-29T04:42:55;95681.81;;;6.08;89.13
11347;BME280;5728;42.722;23.258;2022-12-29T04:45:22;95674.06;;;6.05;89.40
11347;BME280;5728;42.722;23.258;2022-12-29T04:47:49;95672.34;;;5.57;89.16
11347;BME280;5728;42.722;23.258;2022-12-29T04:50:16;95677.44;;;4.68;90.89
11347;BME280;5728;42.722;23.258;2022-12-29T04:52:42;95682.84;;;4.80;92.99
11347;BME280;5728;42.722;23.258;2022-12-29T04:55:09;95693.66;;;5.07;93.23
11347;BME280;5728;42.722;23.258;2022-12-29T04:57:37;95688.22;;;5.35;92.97
11347;BME280;5728;42.722;23.258;2022-12-29T05:00:06;95690.38;;;5.59;90.41
11347;BME280;5728;42.722;23.258;2022-12-29T05:02:34;95713.66;;;5.66;90.04
11347;BME280;5728;42.722;23.258;2022-12-29T05:05:01;95687.31;;;5.79;89.46
11347;BME280;5728;42.722;23.258;2022-12-29T05:07:28;95681.50;;;5.88;88.26
11347;BME280;5728;42.722;23.258;2022-12-29T05:09:55;95690.63;;;5.71;88.54
11347;BME280;5728;42.722;23.258;2022-12-29T05:12:22;95704.56;;;5.37;90.37
11347;BME280;5728;42.722;23.258;2022-12-29T05:14:50;95691.16;;;5.53;90.22
11347;BME280;5728;42.722;23.258;2022-12-29T05:20:39;95695.06;;;5.33;92.81
11347;BME280;5728;42.722;23.258;2022-12-29T05:23:05;95699.41;;;5.37;92.24
11347;BME280;5728;42.722;23.258;2022-12-29T05:25:32;95696.31;;;5.53;90.85
11347;BME280;5728;42.722;23.258;2022-12-29T05:27:59;95694.56;;;5.52;93.36
11347;BME280;5728;42.722;23.258;2022-12-29T05:30:27;95693.53;;;5.43;94.95
11347;BME280;5728;42.722;23.258;2022-12-29T05:32:54;95681.41;;;5.36;94.01
11347;BME280;5728;42.722;23.258;2022-12-29T05:35:20;95692.31;;;4.82;94.37
11347;BME280;5728;42.722;23.258;2022-12-29T05:37:47;95695.59;;;5.17;96.27
11347;BME280;5728;42.722;23.258;2022-12-29T05:40:14;95695.50;;;5.57;94.02
11347;BME280;5728;42.722;23.258;2022-12-29T05:42:40;95697.28;;;5.61;91.28
11347;BME280;5728;42.722;23.258;2022-12-29T05:45:08;95691.22;;;5.13;91.11
11347;BME280;5728;42.722;23.258;2022-12-29T05:47:36;95695.44;;;4.68;93.86
11347;BME280;5728;42.722;23.258;2022-12-29T05:50:04;95705.69;;;4.68;95.11
11347;BME280;5728;42.722;23.258;2022-12-29T05:52:46;95706.47;;;4.26;95.92
11347;BME280;5728;42.722;23.258;2022-12-29T05:55:13;95710.25;;;4.42;98.41
11347;BME280;5728;42.722;23.258;2022-12-29T05:57:40;95704.56;;;4.55;98.57
11347;BME280;5728;42.722;23.258;2022-12-29T06:00:08;95709.97;;;4.69;97.46
11347;BME280;5728;42.722;23.258;2022-12-29T06:02:35;95707.31;;;4.64;98.04
11347;BME280;5728;42.722;23.258;2022-12-29T06:05:03;95713.97;;;4.55;98.81
11347;BME280;5728;42.722;23.258;2022-12-29T06:07:30;95710.19;;;4.78;100.00
11347;BME280;5728;42.722;23.258;2022-12-29T06:09:57;95709.19;;;4.71;99.61
11347;BME280;5728;42.722;23.258;2022-12-29T06:12:24;95700.88;;;5.23;97.50
11347;BME280;5728;42.722;23.258;2022-12-29T06:14:50;95717.63;;;5.49;96.84
11347;BME280;5728;42.722;23.258;2022-12-29T06:17:17;95707.78;;;5.72;94.80
11347;BME280;5728;42.722;23.258;2022-12-29T06:19:44;95710.69;;;5.89;94.16
11347;BME280;5728;42.722;23.258;2022-12-29T06:22:12;95718.56;;;5.99;93.08
11347;BME280;5728;42.722;23.258;2022-12-29T06:24:39;95712.91;;;6.20;90.92
11347;BME280;5728;42.722;23.258;2022-12-29T06:27:06;95719.81;;;6.21;90.25
11347;BME280;5728;42.722;23.258;2022-12-29T06:29:32;95721.50;;;6.19;89.84
11347;BME280;5728;42.722;23.258;2022-12-29T06:32:07;95718.88;;;6.16;90.27
11347;BME280;5728;42.722;23.258;2022-12-29T06:34:34;95715.47;;;6.18;89.23
11347;BME280;5728;42.722;23.258;2022-12-29T06:37:01;95721.38;;;6.13;89.88
11347;BME280;5728;42.722;23.258;2022-12-29T06:39:29;95705.34;;;5.79;90.62
11347;BME280;5728;42.722;23.258;2022-12-29T06:41:56;95721.25;;;6.04;90.78
11347;BME280;5728;42.722;23.258;2022-12-29T06:44:23;95724.91;;;6.18;90.14
11347;BME280;5728;42.722;23.258;2022-12-29T06:46:50;95720.81;;;6.30;89.35
11347;BME280;5728;42.722;23.258;2022-12-29T06:49:18;95720.84;;;6.32;89.15
11347;BME280;5728;42.722;23.258;2022-12-29T06:51:44;95717.31;;;6.25;89.59
11347;BME280;5728;42.722;23.258;2022-12-29T06:54:11;95729.50;;;6.35;89.36
11347;BME280;5728;42.722;23.258;2022-12-29T06:56:39;95726.94;;;6.37;89.15
11347;BME280;5728;42.722;23.258;2022-12-29T06:59:06;95731.47;;;6.52;87.89
11347;BME280;5728;42.722;23.258;2022-12-29T07:01:34;95731.28;;;5.90;88.21
11347;BME280;5728;42.722;23.258;2022-12-29T07:04:03;95731.94;;;5.81;90.25
11347;BME280;5728;42.722;23.258;2022-12-29T07:06:30;95736.56;;;5.98;90.50
11347;BME280;5728;42.722;23.258;2022-12-29T07:08:57;95723.38;;;6.29;88.58
11347;BME280;5728;42.722;23.258;2022-12-29T07:11:24;95732.44;;;6.07;88.41
11347;BME280;5728;42.722;23.258;2022-12-29T07:13:52;95732.69;;;6.76;93.19
11347;BME280;5728;42.722;23.258;2022-12-29T07:16:18;95731.63;;;6.08;89.00
11347;BME280;5728;42.722;23.258;2022-12-29T07:18:45;95729.59;;;6.41;88.84
11347;BME280;5728;42.722;23.258;2022-12-29T07:21:14;95733.19;;;6.53;86.93
11347;BME280;5728;42.722;23.258;2022-12-29T07:23:41;95736.94;;;5.72;88.31
11347;BME280;5728;42.722;23.258;2022-12-29T07:26:12;95731.31;;;5.92;88.90
11347;BME280;5728;42.722;23.258;2022-12-29T07:28:39;95734.31;;;5.69;91.41
11347;BME280;5728;42.722;23.258;2022-12-29T07:31:13;95733.84;;;5.89;90.92
11347;BME280;5728;42.722;23.258;2022-12-29T07:33:41;95738.47;;;6.08;91.00
11347;BME280;5728;42.722;23.258;2022-12-29T07:36:08;95726.91;;;6.34;89.78
11347;BME280;5728;42.722;23.258;2022-12-29T07:38:35;95742.19;;;6.80;87.45
11347;BME280;5728;42.722;23.258;2022-12-29T07:41:02;95739.09;;;7.05;86.68
11347;BME280;5728;42.722;23.258;2022-12-29T07:43:29;95732.25;;;6.46;86.31
11347;BME280;5728;42.722;23.258;2022-12-29T07:45:56;95737.69;;;6.67;86.78
11347;BME280;5728;42.722;23.258;2022-12-29T07:48:24;95730.72;;;6.60;85.21
11347;BME280;5728;42.722;23.258;2022-12-29T07:50:51;95743.16;;;6.31;87.57
11347;BME280;5728;42.722;23.258;2022-12-29T07:53:18;95738.38;;;6.56;86.31
11347;BME280;5728;42.722;23.258;2022-12-29T07:55:45;95739.22;;;6.53;86.59
11347;BME280;5728;42.722;23.258;2022-12-29T07:58:14;95745.16;;;6.49;87.83
11347;BME280;5728;42.722;23.258;2022-12-29T08:00:40;95751.41;;;6.11;87.05
11347;BME280;5728;42.722;23.258;2022-12-29T08:03:07;95730.25;;;6.30;88.31
11347;BME280;5728;42.722;23.258;2022-12-29T08:05:35;95750.28;;;6.48;87.65
11347;BME280;5728;42.722;23.258;2022-12-29T08:08:02;95747.63;;;6.43;87.44
11347;BME280;5728;42.722;23.258;2022-12-29T08:10:29;95749.56;;;6.56;87.78
11347;BME280;5728;42.722;23.258;2022-12-29T08:12:55;95746.00;;;7.08;86.60
11347;BME280;5728;42.722;23.258;2022-12-29T08:15:22;95747.03;;;7.21;84.32
11347;BME280;5728;42.722;23.258;2022-12-29T08:17:49;95747.19;;;7.30;82.79
11347;BME280;5728;42.722;23.258;2022-12-29T08:20:16;95728.19;;;7.25;83.33
11347;BME280;5728;42.722;23.258;2022-12-29T08:22:44;95745.75;;;7.56;83.63
11347;BME280;5728;42.722;23.258;2022-12-29T08:25:11;95737.41;;;7.77;82.63
11347;BME280;5728;42.722;23.258;2022-12-29T08:27:38;95741.16;;;8.07;81.87
11347;BME280;5728;42.722;23.258;2022-12-29T08:30:05;95739.47;;;8.12;79.20
11347;BME280;5728;42.722;23.258;2022-12-29T08:32:32;95740.22;;;7.99;80.44
11347;BME280;5728;42.722;23.258;2022-12-29T08:34:59;95738.63;;;8.12;80.43
11347;BME280;5728;42.722;23.258;2022-12-29T08:37:26;95763.88;;;8.42;79.42
11347;BME280;5728;42.722;23.258;2022-12-29T08:39:54;95745.63;;;8.25;78.29
11347;BME280;5728;42.722;23.258;2022-12-29T08:42:21;95737.97;;;8.32;78.14
11347;BME280;5728;42.722;23.258;2022-12-29T08:44:47;95748.97;;;8.16;79.71
11347;BME280;5728;42.722;23.258;2022-12-29T08:47:14;95730.72;;;7.98;80.87
11347;BME280;5728;42.722;23.258;2022-12-29T08:49:41;95745.41;;;8.02;80.64
11347;BME280;5728;42.722;23.258;2022-12-29T08:52:08;95744.84;;;8.33;79.79
11347;BME280;5728;42.722;23.258;2022-12-29T08:54:34;95748.34;;;8.36;77.85
11347;BME280;5728;42.722;23.258;2022-12-29T08:57:03;95743.28;;;8.48;78.77
11347;BME280;5728;42.722;23.258;2022-12-29T08:59:29;95746.91;;;8.74;77.13
11347;BME280;5728;42.722;23.258;2022-12-29T09:01:56;95729.69;;;8.79;78.19
11347;BME280;5728;42.722;23.258;2022-12-29T09:04:23;95725.22;;;8.52;77.05
11347;BME280;5728;42.722;23.258;2022-12-29T09:06:49;95732.09;;;8.52;77.24
11347;BME280;5728;42.722;23.258;2022-12-29T09:09:16;95734.81;;;8.70;76.55
11347;BME280;5728;42.722;23.258;2022-12-29T09:11:43;95727.72;;;8.43;77.60
11347;BME280;5728;42.722;23.258;2022-12-29T09:14:12;95722.88;;;8.90;77.52
11347;BME280;5728;42.722;23.258;2022-12-29T09:16:40;95719.34;;;8.76;77.49
11347;BME280;5728;42.722;23.258;2022-12-29T09:19:24;95719.53;;;9.06;75.69
11347;BME280;5728;42.722;23.258;2022-12-29T09:21:51;95706.81;;;9.56;75.80
11347;BME280;5728;42.722;23.258;2022-12-29T09:24:18;95715.50;;;9.76;72.88
11347;BME280;5728;42.722;23.258;2022-12-29T09:26:44;95710.34;;;9.79;73.92
11347;BME280;5728;42.722;23.258;2022-12-29T09:29:12;95707.72;;;9.69;73.81
11347;BME280;5728;42.722;23.258;2022-12-29T09:31:39;95710.34;;;9.79;72.71
11347;BME280;5728;42.722;23.258;2022-12-29T09:34:06;95713.38;;;8.86;74.34
11347;BME280;5728;42.722;23.258;2022-12-29T09:36:32;95699.00;;;9.47;75.47
11347;BME280;5728;42.722;23.258;2022-12-29T09:38:59;95697.44;;;10.02;74.79
11347;BME280;5728;42.722;23.258;2022-12-29T09:41:29;95692.22;;;9.84;72.38
11347;BME280;5728;42.722;23.258;2022-12-29T09:44:07;95687.94;;;10.07;70.99
11347;BME280;5728;42.722;23.258;2022-12-29T09:46:43;95689.63;;;9.93;72.11
11347;BME280;5728;42.722;23.258;2022-12-29T09:49:21;95686.97;;;9.56;73.37
11347;BME280;5728;42.722;23.258;2022-12-29T09:51:53;95687.91;;;9.89;72.71
11347;BME280;5728;42.722;23.258;2022-12-29T09:54:35;95681.94;;;10.41;72.17
11347;BME280;5728;42.722;23.258;2022-12-29T09:57:15;95680.16;;;10.70;69.44
11347;BME280;5728;42.722;23.258;2022-12-29T09:59:45;95672.38;;;10.75;69.36
11347;BME280;5728;42.722;23.258;2022-12-29T10:02:23;95678.44;;;10.72;70.61
11347;BME280;5728;42.722;23.258;2022-12-29T10:04:53;95675.00;;;10.28;70.20
11347;BME280;5728;42.722;23.258;2022-12-29T10:07:30;95675.00;;;10.58;70.17
11347;BME280;5728;42.722;23.258;2022-12-29T10:10:06;95662.81;;;11.00;69.07
11347;BME280;5728;42.722;23.258;2022-12-29T10:12:48;95666.31;;;10.86;68.81
11347;BME280;5728;42.722;23.258;2022-12-29T10:15:32;95658.38;;;11.30;68.55
11347;BME280;5728;42.722;23.258;2022-12-29T10:18:17;95664.25;;;11.73;66.38
11347;BME280;5728;42.722;23.258;2022-12-29T10:20:49;95661.63;;;11.82;65.68
11347;BME280;5728;42.722;23.258;2022-12-29T10:23:25;95654.09;;;11.22;65.92
11347;BME280;5728;42.722;23.258;2022-12-29T10:25:54;95651.47;;;11.32;68.26
11347;BME280;5728;42.722;23.258;2022-12-29T10:28:23;95658.22;;;11.68;66.61
11347;BME280;5728;42.722;23.258;2022-12-29T10:30:51;95651.19;;;11.87;64.63
11347;BME280;5728;42.722;23.258;2022-12-29T10:33:23;95646.09;;;11.67;66.00
11347;BME280;5728;42.722;23.258;2022-12-29T10:35:53;95635.72;;;11.63;66.33
11347;BME280;5728;42.722;23.258;2022-12-29T10:38:25;95645.25;;;11.56;65.47
11347;BME280;5728;42.722;23.258;2022-12-29T10:40:57;95633.97;;;11.62;66.33
11347;BME280;5728;42.722;23.258;2022-12-29T10:43:27;95633.91;;;11.80;65.53
11347;BME280;5728;42.722;23.258;2022-12-29T10:45:56;95628.75;;;11.66;66.58
11347;BME280;5728;42.722;23.258;2022-12-29T10:48:27;95625.22;;;11.84;65.24
11347;BME280;5728;42.722;23.258;2022-12-29T10:50:58;95625.81;;;12.21;64.05
11347;BME280;5728;42.722;23.258;2022-12-29T10:53:27;95624.09;;;12.20;63.25
11347;BME280;5728;42.722;23.258;2022-12-29T10:55:59;95620.53;;;12.30;63.29
11347;BME280;5728;42.722;23.258;2022-12-29T10:58:27;95629.13;;;12.41;62.88
11347;BME280;5728;42.722;23.258;2022-12-29T11:00:55;95610.84;;;12.44;62.17
11347;BME280;5728;42.722;23.258;2022-12-29T11:03:49;95605.59;;;12.53;62.91
11347;BME280;5728;42.722;23.258;2022-12-29T11:06:22;95612.28;;;12.78;61.32
11347;BME280;5728;42.722;23.258;2022-12-29T11:08:53;95599.81;;;13.07;61.02
11347;BME280;5728;42.722;23.258;2022-12-29T11:11:24;95602.78;;;13.47;59.80
11347;BME280;5728;42.722;23.258;2022-12-29T11:13:56;95606.00;;;13.66;59.23
11347;BME280;5728;42.722;23.258;2022-12-29T11:16:27;95599.25;;;14.12;59.00
11347;BME280;5728;42.722;23.258;2022-12-29T11:18:57;95589.94;;;14.49;57.89
11347;BME280;5728;42.722;23.258;2022-12-29T11:21:29;95590.50;;;14.66;56.94
11347;BME280;5728;42.722;23.258;2022-12-29T11:23:59;95596.63;;;14.12;56.86
11347;BME280;5728;42.722;23.258;2022-12-29T11:26:26;95592.13;;;14.20;57.47
11347;BME280;5728;42.722;23.258;2022-12-29T11:29:21;95600.34;;;13.96;58.00
11347;BME280;5728;42.722;23.258;2022-12-29T11:31:49;95591.34;;;14.15;60.95
11347;BME280;5728;42.722;23.258;2022-12-29T11:34:19;95587.53;;;13.81;59.82
11347;BME280;5728;42.722;23.258;2022-12-29T11:36:47;95589.59;;;13.59;58.85
11347;BME280;5728;42.722;23.258;2022-12-29T11:39:40;95586.94;;;13.62;59.23
11347;BME280;5728;42.722;23.258;2022-12-29T11:42:15;95582.75;;;13.51;58.25
11347;BME280;5728;42.722;23.258;2022-12-29T11:44:44;95586.44;;;13.34;59.31
11347;BME280;5728;42.722;23.258;2022-12-29T11:47:20;95583.53;;;13.59;59.07
11347;BME280;5728;42.722;23.258;2022-12-29T11:49:55;95577.56;;;13.51;58.64
11347;BME280;5728;42.722;23.258;2022-12-29T11:52:25;95580.88;;;13.62;59.98
11347;BME280;5728;42.722;23.258;2022-12-29T11:54:53;95574.22;;;13.39;59.38
11347;BME280;5728;42.722;23.258;2022-12-29T11:57:22;95569.81;;;13.46;59.11
11347;BME280;5728;42.722;23.258;2022-12-29T11:59:50;95579.44;;;13.39;59.47
11347;BME280;5728;42.722;23.258;2022-12-29T12:02:40;95571.63;;;12.65;61.20
11347;BME280;5728;42.722;23.258;2022-12-29T12:05:23;95568.94;;;12.74;61.78
11347;BME280;5728;42.722;23.258;2022-12-29T12:07:55;95564.03;;;12.48;61.86
11347;BME280;5728;42.722;23.258;2022-12-29T12:10:26;95559.19;;;12.07;63.57
11347;BME280;5728;42.722;23.258;2022-12-29T12:13:10;95567.88;;;12.05;64.30
11347;BME280;5728;42.722;23.258;2022-12-29T12:15:44;95561.34;;;12.54;63.77
11347;BME280;5728;42.722;23.258;2022-12-29T12:18:17;95556.06;;;12.62;64.47
11347;BME280;5728;42.722;23.258;2022-12-29T12:20:49;95547.63;;;12.39;64.99
11347;BME280;5728;42.722;23.258;2022-12-29T12:23:27;95554.59;;;12.34;66.72
11347;BME280;5728;42.722;23.258;2022-12-29T12:26:00;95559.94;;;12.18;65.18
11347;BME280;5728;42.722;23.258;2022-12-29T12:28:36;95550.44;;;12.18;65.71
11347;BME280;5728;42.722;23.258;2022-12-29T12:31:06;95554.78;;;12.17;65.52
11347;BME280;5728;42.722;23.258;2022-12-29T12:33:41;95535.59;;;12.29;65.32
11347;BME280;5728;42.722;23.258;2022-12-29T12:36:20;95535.47;;;12.42;64.34
11347;BME280;5728;42.722;23.258;2022-12-29T12:38:55;95545.84;;;12.44;64.53
11347;BME280;5728;42.722;23.258;2022-12-29T12:41:35;95541.72;;;12.23;66.52
11347;BME280;5728;42.722;23.258;2022-12-29T12:44:12;95539.91;;;12.33;65.40
11347;BME280;5728;42.722;23.258;2022-12-29T12:47:02;95533.56;;;12.58;65.28
11347;BME280;5728;42.722;23.258;2022-12-29T12:52:31;95540.84;;;12.26;69.22
11347;BME280;5728;42.722;23.258;2022-12-29T12:55:25;95538.25;;;12.23;66.62
11347;BME280;5728;42.722;23.258;2022-12-29T12:58:01;95535.72;;;12.13;66.57
11347;BME280;5728;42.722;23.258;2022-12-29T13:00:33;95540.78;;;12.29;66.09
11347;BME280;5728;42.722;23.258;2022-12-29T13:03:12;95534.00;;;12.15;66.48
11347;BME280;5728;42.722;23.258;2022-12-29T13:05:54;95528.63;;;12.32;68.14
11347;BME280;5728;42.722;23.258;2022-12-29T13:08:44;95528.81;;;12.12;67.69
11347;BME280;5728;42.722;23.258;2022-12-29T13:11:19;95528.13;;;11.91;66.66
11347;BME280;5728;42.722;23.258;2022-12-29T13:14:15;95527.97;;;12.12;66.12
11347;BME280;5728;42.722;23.258;2022-12-29T13:16:51;95524.13;;;12.46;67.88
11347;BME280;5728;42.722;23.258;2022-12-29T13:19:26;95530.13;;;12.56;67.48
11347;BME280;5728;42.722;23.258;2022-12-29T13:22:04;95539.00;;;12.34;65.74
11347;BME280;5728;42.722;23.258;2022-12-29T13:24:42;95536.22;;;12.52;65.55
11347;BME280;5728;42.722;23.258;2022-12-29T13:27:16;95537.84;;;12.63;65.23
11347;BME280;5728;42.722;23.258;2022-12-29T13:29:48;95545.16;;;12.25;65.73
11347;BME280;5728;42.722;23.258;2022-12-29T13:32:27;95527.13;;;12.10;67.49
11347;BME280;5728;42.722;23.258;2022-12-29T13:35:06;95521.84;;;12.18;68.02
11347;BME280;5728;42.722;23.258;2022-12-29T13:37:45;95548.78;;;12.09;66.40